Time;durP1;ratioP1;P1;durP2;ratioP2;P2;SDS_P1;SDS_P2;PMS_P1;PMS_P2;Temp;Humidity;BMP_temperature;BMP_pressure;BME280_temperature;BME280_humidity;BME280_pressure;Samples;Min_cycle;Max_cycle;Signal;HPM_P1;HPM_P2
2023/01/09 00:00:18;;;;;;;1999.90;999.90;;;8.40;1.00;;;;;;5042061;28;20679;-69
2023/01/09 00:02:44;;;;;;;1999.90;999.90;;;8.20;1.00;;;;;;5042107;28;20921;-69
2023/01/09 00:05:11;;;;;;;1999.90;999.90;;;8.20;1.00;;;;;;5042082;28;20428;-69
2023/01/09 00:07:37;;;;;;;1999.90;999.90;;;8.20;1.00;;;;;;5042122;28;20180;-69
2023/01/09 00:10:04;;;;;;;1999.90;999.90;;;8.10;1.00;;;;;;5043342;28;20716;-69
2023/01/09 00:12:29;;;;;;;1999.90;999.90;;;8.20;1.00;;;;;;5045044;28;20163;-69
2023/01/09 00:14:55;;;;;;;1999.90;999.90;;;8.10;1.00;;;;;;5043322;28;20446;-69
2023/01/09 00:17:21;;;;;;;1999.90;999.90;;;8.10;1.00;;;;;;5043466;28;20344;-69
2023/01/09 00:19:46;;;;;;;1999.90;999.90;;;8.00;1.00;;;;;;5043404;28;20516;-69
2023/01/09 00:22:12;;;;;;;1999.90;999.90;;;8.30;1.00;;;;;;5042029;28;20176;-69
2023/01/09 00:24:37;;;;;;;1999.90;999.90;;;8.10;1.00;;;;;;5041545;28;20229;-69
2023/01/09 00:27:03;;;;;;;1999.90;999.90;;;8.30;1.00;;;;;;5040283;28;20173;-69
2023/01/09 00:29:29;;;;;;;1999.90;999.90;;;8.00;1.00;;;;;;5043179;28;20176;-69
2023/01/09 00:31:54;;;;;;;1999.90;999.90;;;8.10;1.00;;;;;;5043986;28;20410;-69
2023/01/09 00:34:20;;;;;;;1999.90;999.90;;;8.10;1.00;;;;;;5043606;28;20256;-69
2023/01/09 00:36:46;;;;;;;1999.90;999.90;;;8.00;1.00;;;;;;5044656;28;20645;-69
2023/01/09 00:39:11;;;;;;;1999.90;999.90;;;8.20;1.00;;;;;;5043493;28;20181;-69
2023/01/09 00:41:48;;;;;;;1999.90;999.90;;;8.10;1.00;;;;;;5044641;28;20165;-69
2023/01/09 00:44:22;;;;;;;1999.90;999.90;;;9.00;1.00;;;;;;5045018;28;20607;-69
2023/01/09 00:47:01;;;;;;;1999.90;999.90;;;8.20;1.00;;;;;;5045637;28;20788;-69
2023/01/09 00:49:29;;;;;;;1999.90;999.90;;;8.20;1.00;;;;;;5045697;28;20433;-68
2023/01/09 00:51:55;;;;;;;1999.90;999.90;;;8.10;1.00;;;;;;5044363;28;20408;-69
2023/01/09 00:54:21;;;;;;;1999.90;999.90;;;8.10;1.00;;;;;;5043528;28;20424;-69
2023/01/09 00:56:48;;;;;;;1999.90;999.90;;;8.10;1.00;;;;;;5044604;28;20243;-69
2023/01/09 00:59:14;;;;;;;1999.90;999.90;;;8.10;1.00;;;;;;5044494;28;20418;-69
2023/01/09 01:01:39;;;;;;;1999.90;999.90;;;8.30;1.00;;;;;;5043500;28;20668;-69
2023/01/09 01:09:35;;;;;;;1999.90;999.90;;;8.20;1.00;;;;;;5044357;28;20474;-69
2023/01/09 01:12:05;;;;;;;1999.90;999.90;;;8.10;1.00;;;;;;5043988;28;20410;-69
2023/01/09 01:14:35;;;;;;;1999.90;999.90;;;8.10;1.00;;;;;;5043403;28;20254;-69
2023/01/09 01:17:01;;;;;;;1999.90;999.90;;;8.00;1.00;;;;;;5042339;28;20640;-69
2023/01/09 01:19:27;;;;;;;1999.90;999.90;;;8.00;1.00;;;;;;5041085;28;20412;-69
2023/01/09 01:21:53;;;;;;;1999.90;999.90;;;;;;;;;;5040028;28;20430;-69
2023/01/09 01:24:19;;;;;;;1999.90;999.90;;;8.00;1.00;;;;;;5038653;28;20214;-69
2023/01/09 01:26:45;;;;;;;1999.90;999.90;;;8.00;1.00;;;;;;5038540;28;20491;-69
2023/01/09 01:29:11;;;;;;;1999.90;999.90;;;8.00;1.00;;;;;;5035547;28;20170;-69
2023/01/09 01:31:37;;;;;;;1999.90;999.90;;;8.00;1.00;;;;;;5033854;28;20399;-69
2023/01/09 01:34:02;;;;;;;1999.90;999.90;;;8.10;1.00;;;;;;5037555;28;20665;-70
2023/01/09 01:36:28;;;;;;;1999.90;999.90;;;8.10;1.00;;;;;;5044312;28;20279;-69
2023/01/09 01:38:53;;;;;;;1999.90;999.90;;;8.10;1.00;;;;;;5043380;28;20169;-69
2023/01/09 01:41:28;;;;;;;1999.90;999.90;;;8.20;1.00;;;;;;5043353;28;20232;-69
2023/01/09 01:43:58;;;;;;;1999.90;999.90;;;8.40;1.00;;;;;;5042698;28;20219;-68
2023/01/09 01:46:24;;;;;;;1999.90;999.90;;;8.00;1.00;;;;;;5042627;28;20403;-69
2023/01/09 01:49:12;;;;;;;1999.90;999.90;;;8.00;1.00;;;;;;5042873;28;20427;-68
2023/01/09 01:51:46;;;;;;;1999.90;999.90;;;7.90;1.00;;;;;;5043974;28;20169;-68
2023/01/09 01:54:18;;;;;;;1999.90;999.90;;;8.00;1.00;;;;;;5044225;28;20456;-69
2023/01/09 01:56:47;;;;;;;1999.90;999.90;;;8.10;1.00;;;;;;5044331;28;20457;-68
2023/01/09 01:59:21;;;;;;;1999.90;999.90;;;8.10;1.00;;;;;;5044424;28;20420;-69
2023/01/09 02:01:57;;;;;;;1999.90;999.90;;;8.10;1.00;;;;;;5042235;28;20466;-69
2023/01/09 02:04:22;;;;;;;1999.90;999.90;;;8.10;1.00;;;;;;5043677;28;20523;-68
2023/01/09 02:06:51;;;;;;;1999.90;999.90;;;8.20;1.00;;;;;;5042261;28;20415;-68
2023/01/09 02:09:21;;;;;;;1999.90;999.90;;;8.20;1.00;;;;;;5042110;28;20184;-69
2023/01/09 02:11:51;;;;;;;1999.90;999.90;;;8.20;1.00;;;;;;5042254;28;20434;-69
2023/01/09 02:14:18;;;;;;;1999.90;999.90;;;8.20;1.00;;;;;;5042276;28;20425;-68
2023/01/09 02:17:02;;;;;;;1999.90;999.90;;;8.20;1.00;;;;;;5041740;28;20548;-69
2023/01/09 02:19:56;;;;;;;1999.90;999.90;;;8.20;1.00;;;;;;5041430;28;20427;-68
2023/01/09 02:23:00;;;;;;;1999.90;999.90;;;8.30;1.00;;;;;;5042881;28;20404;-69
2023/01/09 02:25:56;;;;;;;1999.90;999.90;;;8.30;1.00;;;;;;5042135;28;20438;-69
2023/01/09 02:28:58;;;;;;;1999.90;999.90;;;8.30;1.00;;;;;;5042818;28;20444;-69
2023/01/09 02:31:43;;;;;;;1999.90;999.90;;;8.30;1.00;;;;;;5042206;28;20406;-69
2023/01/09 02:34:18;;;;;;;1999.90;999.90;;;8.20;1.00;;;;;;5043729;28;20431;-69
2023/01/09 02:36:58;;;;;;;1999.90;999.90;;;8.20;1.00;;;;;;5045104;28;20824;-69
2023/01/09 02:39:34;;;;;;;1999.90;999.90;;;8.10;1.00;;;;;;5043357;28;20403;-69
2023/01/09 02:42:11;;;;;;;1999.90;999.90;;;8.00;1.00;;;;;;5042833;28;20403;-69
2023/01/09 02:44:36;;;;;;;1999.90;999.90;;;8.10;1.00;;;;;;5042885;28;20417;-70
2023/01/09 02:47:14;;;;;;;1999.90;999.90;;;8.10;1.00;;;;;;5043514;28;20414;-69
2023/01/09 02:50:01;;;;;;;1999.90;999.90;;;8.10;1.00;;;;;;5043939;28;20177;-69
2023/01/09 02:52:34;;;;;;;1999.90;999.90;;;8.10;1.00;;;;;;5045600;28;20387;-69
2023/01/09 02:55:17;;;;;;;1999.90;999.90;;;8.00;1.00;;;;;;5044498;28;20428;-69
2023/01/09 02:58:18;;;;;;;1999.90;999.90;;;8.00;1.00;;;;;;5043750;28;20429;-69
2023/01/09 03:00:46;;;;;;;1999.90;999.90;;;7.90;1.00;;;;;;5044559;28;20404;-68
2023/01/09 03:03:39;;;;;;;1999.90;999.90;;;7.70;1.00;;;;;;5044964;28;20405;-69
2023/01/09 03:06:25;;;;;;;1999.90;999.90;;;7.70;1.00;;;;;;5042689;28;20423;-69
2023/01/09 03:08:56;;;;;;;1999.90;999.90;;;7.60;1.00;;;;;;5034768;28;20430;-69
2023/01/09 03:11:25;;;;;;;1999.90;999.90;;;7.60;1.00;;;;;;5034485;28;20403;-69
2023/01/09 03:13:54;;;;;;;1999.90;999.90;;;7.50;1.00;;;;;;5034235;28;20514;-69
2023/01/09 03:16:25;;;;;;;1999.90;999.90;;;7.60;1.00;;;;;;5034193;28;20476;-69
2023/01/09 03:18:53;;;;;;;1999.90;999.90;;;7.60;1.00;;;;;;5034074;28;20429;-69
2023/01/09 03:21:20;;;;;;;1999.90;999.90;;;7.60;1.00;;;;;;5034290;28;21017;-69
2023/01/09 03:23:51;;;;;;;1999.90;999.90;;;7.60;1.00;;;;;;5034229;28;20533;-69
2023/01/09 03:26:17;;;;;;;1999.90;999.90;;;7.50;1.00;;;;;;5033996;28;21035;-69
2023/01/09 03:28:43;;;;;;;1999.90;999.90;;;7.50;1.00;;;;;;5034248;28;20486;-69
2023/01/09 03:31:09;;;;;;;1999.90;999.90;;;7.40;1.00;;;;;;5034084;28;20415;-69
2023/01/09 03:33:35;;;;;;;1999.90;999.90;;;7.40;1.00;;;;;;5033962;28;20403;-69
2023/01/09 03:36:01;;;;;;;1999.90;999.90;;;7.40;1.00;;;;;;5033777;28;20192;-69
2023/01/09 03:38:26;;;;;;;1999.90;999.90;;;7.30;1.00;;;;;;5033853;28;20177;-69
2023/01/09 03:40:52;;;;;;;1999.90;999.90;;;7.30;1.00;;;;;;5033845;28;20227;-69
2023/01/09 03:43:17;;;;;;;1999.90;999.90;;;7.30;1.00;;;;;;5033911;28;20195;-69
2023/01/09 03:45:43;;;;;;;1999.90;999.90;;;7.30;1.00;;;;;;5033687;28;20193;-69
2023/01/09 03:48:08;;;;;;;1999.90;999.90;;;7.30;1.00;;;;;;5033521;28;20179;-69
2023/01/09 03:50:34;;;;;;;1999.90;999.90;;;7.30;1.00;;;;;;5033776;28;20542;-69
2023/01/09 03:53:00;;;;;;;1999.90;999.90;;;7.20;1.00;;;;;;5033733;28;20181;-69
2023/01/09 03:55:25;;;;;;;1999.90;999.90;;;7.20;1.00;;;;;;5033455;28;20194;-69
2023/01/09 03:57:51;;;;;;;1999.90;999.90;;;7.20;1.00;;;;;;5032562;28;20645;-69
2023/01/09 04:00:18;;;;;;;1999.90;999.90;;;7.10;1.00;;;;;;5033469;28;20182;-69
2023/01/09 04:02:44;;;;;;;1999.90;999.90;;;7.10;1.00;;;;;;5033448;28;20892;-69
2023/01/09 04:05:10;;;;;;;1999.90;999.90;;;7.10;1.00;;;;;;5033358;28;20513;-69
2023/01/09 04:07:36;;;;;;;1999.90;999.90;;;7.00;1.00;;;;;;5033331;28;20771;-69
2023/01/09 04:10:01;;;;;;;1999.90;999.90;;;7.00;1.00;;;;;;5033116;28;20558;-69
2023/01/09 04:12:27;;;;;;;1999.90;999.90;;;7.00;1.00;;;;;;5033341;28;20165;-69
2023/01/09 04:14:52;;;;;;;1999.90;999.90;;;7.00;1.00;;;;;;5033230;28;20196;-69
2023/01/09 04:17:18;;;;;;;1999.90;999.90;;;7.00;1.00;;;;;;5032944;28;20208;-69
2023/01/09 04:19:44;;;;;;;1999.90;999.90;;;7.00;1.00;;;;;;5033075;28;20168;-68
2023/01/09 04:22:09;;;;;;;1999.90;999.90;;;7.00;1.00;;;;;;5033254;28;20187;-69
2023/01/09 04:24:35;;;;;;;1999.90;999.90;;;7.00;1.00;;;;;;5033073;28;20723;-68
2023/01/09 04:27:00;;;;;;;1999.90;999.90;;;7.10;1.00;;;;;;5032909;28;20199;-69
2023/01/09 04:29:26;;;;;;;1999.90;999.90;;;7.10;1.00;;;;;;5032834;28;20176;-69
2023/01/09 04:31:51;;;;;;;1999.90;999.90;;;7.20;1.00;;;;;;5032932;28;20185;-68
2023/01/09 04:34:17;;;;;;;1999.90;999.90;;;7.30;1.00;;;;;;5032782;28;20231;-69
2023/01/09 04:36:43;;;;;;;1999.90;999.90;;;7.30;1.00;;;;;;5032726;28;20609;-69
2023/01/09 04:39:08;;;;;;;1999.90;999.90;;;7.40;1.00;;;;;;5032543;28;20183;-69
2023/01/09 04:41:49;;;;;;;1999.90;999.90;;;7.40;99.90;;;;;;5032735;28;20179;-69
2023/01/09 04:44:16;;;;;;;1999.90;999.90;;;7.50;99.90;;;;;;5032688;28;20473;-69
2023/01/09 04:46:41;;;;;;;1999.90;999.90;;;7.50;99.90;;;;;;5032685;28;20786;-69
2023/01/09 04:49:07;;;;;;;1999.90;999.90;;;7.50;99.90;;;;;;5032488;28;20411;-69
2023/01/09 04:51:32;;;;;;;1999.90;999.90;;;7.60;99.90;;;;;;5032569;28;20170;-69
2023/01/09 04:53:58;;;;;;;1999.90;999.90;;;7.60;99.90;;;;;;5032563;28;20255;-68
2023/01/09 04:56:24;;;;;;;1999.90;999.90;;;7.60;99.90;;;;;;5032319;28;20202;-68
2023/01/09 04:58:49;;;;;;;1999.90;999.90;;;7.70;23.20;;;;;;5032346;28;20188;-69
2023/01/09 05:01:15;;;;;;;1999.90;999.90;;;7.80;43.50;;;;;;5032407;28;20171;-69
2023/01/09 05:03:40;;;;;;;1999.90;999.90;;;7.70;57.90;;;;;;5032313;28;20549;-69
2023/01/09 05:06:06;;;;;;;1999.90;999.90;;;7.70;10.90;;;;;;5032276;28;20213;-69
2023/01/09 05:08:32;;;;;;;1999.90;999.90;;;7.80;2.20;;;;;;5031884;28;20177;-69
2023/01/09 05:10:57;;;;;;;1999.90;999.90;;;7.80;1.00;;;;;;5032255;28;20517;-68
2023/01/09 05:13:23;;;;;;;1999.90;999.90;;;7.90;99.50;;;;;;5032337;28;20172;-69
2023/01/09 05:15:48;;;;;;;1999.90;999.90;;;7.80;1.90;;;;;;5032129;28;20197;-69
2023/01/09 05:18:14;;;;;;;1999.90;999.90;;;7.80;1.00;;;;;;5031930;28;20738;-69
2023/01/09 05:20:40;;;;;;;1999.90;999.90;;;7.90;17.10;;;;;;5032249;28;20186;-69
2023/01/09 05:23:05;;;;;;;1999.90;999.90;;;7.90;95.20;;;;;;5032008;28;20405;-69
2023/01/09 05:25:31;;;;;;;1999.90;999.90;;;7.90;99.90;;;;;;5032176;28;20628;-69
2023/01/09 05:27:56;;;;;;;1999.90;999.90;;;7.90;99.90;;;;;;5031990;28;20179;-69
2023/01/09 05:30:22;;;;;;;1999.90;999.90;;;7.90;99.90;;;;;;5031864;28;20178;-69
2023/01/09 05:32:48;;;;;;;1999.90;999.90;;;7.90;99.90;;;;;;5032029;28;20658;-69
2023/01/09 05:35:13;;;;;;;1999.90;999.90;;;7.90;99.90;;;;;;5031706;28;20614;-69
2023/01/09 05:37:39;;;;;;;1999.90;999.90;;;8.00;99.90;;;;;;5031883;28;20183;-68
2023/01/09 05:40:05;;;;;;;1999.90;999.90;;;8.00;99.90;;;;;;5031736;28;20826;-69
2023/01/09 05:42:31;;;;;;;1999.90;999.90;;;8.00;99.90;;;;;;5031982;28;20176;-69
2023/01/09 05:44:56;;;;;;;1999.90;999.90;;;8.00;99.90;;;;;;5031856;28;20477;-69
2023/01/09 05:47:22;;;;;;;1999.90;999.90;;;8.00;99.90;;;;;;5031756;28;20172;-69
2023/01/09 05:49:48;;;;;;;1999.90;999.90;;;8.00;99.90;;;;;;5031607;28;20188;-69
2023/01/09 05:52:13;;;;;;;1999.90;999.90;;;8.00;99.90;;;;;;5031801;28;20177;-69
2023/01/09 05:54:39;;;;;;;1999.90;999.90;;;8.00;99.90;;;;;;5031669;28;20560;-68
2023/01/09 05:57:05;;;;;;;1999.90;999.90;;;8.00;99.90;;;;;;5031698;28;20202;-69
2023/01/09 05:59:30;;;;;;;1999.90;999.90;;;8.00;99.90;;;;;;5031598;28;20198;-69
2023/01/09 06:01:56;;;;;;;1999.90;999.90;;;8.00;99.90;;;;;;5031801;28;20172;-68
2023/01/09 06:04:21;;;;;;;1999.90;999.90;;;8.00;99.90;;;;;;5031700;28;20234;-69
2023/01/09 06:06:47;;;;;;;1999.90;999.90;;;8.00;99.90;;;;;;5031741;28;20185;-69
2023/01/09 06:09:13;;;;;;;1999.90;999.90;;;8.00;1.00;;;;;;5031694;28;20200;-69
2023/01/09 06:11:38;;;;;;;1999.90;999.90;;;8.10;99.90;;;;;;5031824;28;20171;-69
2023/01/09 06:14:05;;;;;;;1999.90;999.90;;;8.10;99.90;;;;;;5032305;28;20200;-69
2023/01/09 06:16:30;;;;;;;1999.90;999.90;;;8.30;99.90;;;;;;5031983;28;20654;-69
2023/01/09 06:18:56;;;;;;;1999.90;999.90;;;8.20;99.90;;;;;;5031902;28;20433;-69
2023/01/09 06:21:22;;;;;;;1999.90;999.90;;;8.20;99.90;;;;;;5033139;28;20248;-69
2023/01/09 06:23:48;;;;;;;1999.90;999.90;;;8.20;99.90;;;;;;5035509;28;20277;-69
2023/01/09 06:26:13;;;;;;;1999.90;999.90;;;8.20;99.90;;;;;;5036414;28;20173;-69
2023/01/09 06:28:39;;;;;;;1999.90;999.90;;;8.20;99.90;;;;;;5035499;28;20185;-69
2023/01/09 06:31:05;;;;;;;1999.90;999.90;;;8.20;99.90;;;;;;5035506;28;20631;-69
2023/01/09 06:33:31;;;;;;;1999.90;999.90;;;8.40;99.90;;;;;;5035210;28;20170;-69
2023/01/09 06:35:56;;;;;;;1999.90;999.90;;;8.30;99.90;;;;;;5035115;28;20196;-69
2023/01/09 06:38:22;;;;;;;1999.90;999.90;;;8.30;99.90;;;;;;5035010;28;20841;-68
2023/01/09 06:40:49;;;;;;;1999.90;999.90;;;8.30;99.90;;;;;;5035281;28;20179;-68
2023/01/09 06:43:14;;;;;;;1999.90;999.90;;;8.30;99.90;;;;;;5042832;28;20180;-69
2023/01/09 06:45:42;;;;;;;1999.90;999.90;;;8.40;99.90;;;;;;5036675;28;20854;-69
2023/01/09 06:48:08;;;;;;;1999.90;999.90;;;8.40;99.90;;;;;;5034967;28;20190;-68
2023/01/09 06:50:34;;;;;;;1999.90;999.90;;;8.40;99.90;;;;;;5035353;28;20886;-69
2023/01/09 06:53:00;;;;;;;1999.90;999.90;;;8.40;99.90;;;;;;5037129;28;20500;-69
2023/01/09 06:55:25;;;;;;;1999.90;999.90;;;8.40;99.90;;;;;;5045226;28;20665;-69
2023/01/09 06:57:51;;;;;;;1999.90;999.90;;;8.30;99.90;;;;;;5046984;28;20185;-67
2023/01/09 07:00:18;;;;;;;1999.90;999.90;;;8.40;99.90;;;;;;5045975;28;20238;-70
2023/01/09 07:02:43;;;;;;;1999.90;999.90;;;8.40;67.70;;;;;;5042154;28;20400;-69
2023/01/09 07:05:10;;;;;;;1999.90;999.90;;;8.50;1.00;;;;;;5040874;28;20424;-69
2023/01/09 07:07:40;;;;;;;1999.90;999.90;;;8.50;1.00;;;;;;5041590;28;20165;-69
2023/01/09 07:10:06;;;;;;;1999.90;999.90;;;8.50;16.40;;;;;;5042189;28;20554;-69
2023/01/09 07:12:32;;;;;;;1999.90;999.90;;;8.40;26.40;;;;;;5043379;28;20404;-68
2023/01/09 07:14:57;;;;;;;1999.90;999.90;;;8.40;6.80;;;;;;5044454;28;20434;-69
2023/01/09 07:17:23;;;;;;;1999.90;999.90;;;8.50;1.00;;;;;;5038047;28;20208;-69
2023/01/09 07:19:49;;;;;;;1999.90;999.90;;;8.50;1.00;;;;;;5034829;28;20174;-69
2023/01/09 07:22:14;;;;;;;1999.90;999.90;;;8.50;1.00;;;;;;5034874;28;20170;-69
2023/01/09 07:24:40;;;;;;;1999.90;999.90;;;8.50;1.00;;;;;;5034661;28;20664;-69
2023/01/09 07:27:06;;;;;;;1999.90;999.90;;;8.50;1.00;;;;;;5034382;28;20514;-69
2023/01/09 07:29:31;;;;;;;1999.90;999.90;;;8.50;1.00;;;;;;5041591;28;20179;-69
2023/01/09 07:31:57;;;;;;;1999.90;999.90;;;8.60;1.00;;;;;;5034113;28;20174;-69
2023/01/09 07:34:22;;;;;;;1999.90;999.90;;;8.60;99.90;;;;;;5045639;28;20222;-69
2023/01/09 07:36:49;;;;;;;1999.90;999.90;;;8.50;99.90;;;;;;5049166;28;20199;-68
2023/01/09 07:39:15;;;;;;;1999.90;999.90;;;8.60;99.90;;;;;;5047958;28;20179;-68
2023/01/09 07:41:41;;;;;;;1999.90;999.90;;;8.60;99.90;;;;;;5049938;28;20420;-68
2023/01/09 07:44:06;;;;;;;1999.90;999.90;;;8.60;99.90;;;;;;5048314;28;20189;-68
2023/01/09 07:46:32;;;;;;;1999.90;999.90;;;8.60;99.90;;;;;;5039723;28;20168;-68
2023/01/09 07:48:58;;;;;;;1999.90;999.90;;;8.60;99.90;;;;;;5033891;28;20178;-69
2023/01/09 07:51:24;;;;;;;1999.90;999.90;;;8.60;99.90;;;;;;5033731;28;20774;-69
2023/01/09 07:53:49;;;;;;;1999.90;999.90;;;8.70;99.90;;;;;;5033672;28;20196;-69
2023/01/09 07:56:15;;;;;;;1999.90;999.90;;;8.70;99.90;;;;;;5033540;28;20214;-69
2023/01/09 07:58:40;;;;;;;1999.90;999.90;;;8.70;99.90;;;;;;5033458;28;20170;-68
2023/01/09 08:01:06;;;;;;;1999.90;999.90;;;8.70;99.90;;;;;;5033645;28;20225;-69
2023/01/09 08:03:33;;;;;;;1999.90;999.90;;;8.70;99.90;;;;;;5033585;28;20173;-69
2023/01/09 08:05:59;;;;;;;1999.90;999.90;;;8.70;99.90;;;;;;5033563;28;20217;-69
2023/01/09 08:08:25;;;;;;;1999.90;999.90;;;8.70;99.90;;;;;;5033404;28;20448;-69
2023/01/09 08:10:50;;;;;;;1999.90;999.90;;;8.70;99.90;;;;;;5033569;28;20422;-69
2023/01/09 08:13:16;;;;;;;1999.90;999.90;;;8.70;99.90;;;;;;5033496;28;20518;-69
2023/01/09 08:15:41;;;;;;;1999.90;999.90;;;8.80;99.90;;;;;;5033393;28;20211;-69
2023/01/09 08:18:07;;;;;;;1999.90;999.90;;;8.80;99.90;;;;;;5033171;28;20545;-69
2023/01/09 08:20:33;;;;;;;1999.90;999.90;;;8.80;99.90;;;;;;5033421;28;20297;-69
2023/01/09 08:22:58;;;;;;;1999.90;999.90;;;8.70;99.90;;;;;;5033475;28;20242;-69
2023/01/09 08:25:24;;;;;;;1999.90;999.90;;;8.80;99.90;;;;;;5033178;28;20191;-69
2023/01/09 08:27:50;;;;;;;1999.90;999.90;;;8.80;99.90;;;;;;5033105;28;20226;-69
2023/01/09 08:30:16;;;;;;;1999.90;999.90;;;8.80;99.90;;;;;;5032817;28;20403;-69
2023/01/09 08:32:43;;;;;;;1999.90;999.90;;;8.80;99.90;;;;;;5032932;28;20258;-69
2023/01/09 08:35:09;;;;;;;1999.90;999.90;;;8.80;99.90;;;;;;5032784;28;20422;-68
2023/01/09 08:37:34;;;;;;;1999.90;999.90;;;8.80;99.90;;;;;;5032649;28;20469;-69
2023/01/09 08:40:00;;;;;;;1999.90;999.90;;;8.80;99.90;;;;;;5032670;28;20463;-69
2023/01/09 08:47:55;;;;;;;1999.90;999.90;;;8.80;1.00;;;;;;5032930;28;20508;-69
2023/01/09 08:50:21;;;;;;;1999.90;999.90;;;8.80;1.00;;;;;;5032329;28;20409;-69
2023/01/09 08:52:47;;;;;;;1999.90;999.90;;;8.80;1.00;;;;;;5032383;28;20492;-68
2023/01/09 08:55:12;;;;;;;1999.90;999.90;;;8.70;1.00;;;;;;5032449;28;20703;-68
2023/01/09 08:57:47;;;;;;;1999.90;999.90;;;8.80;1.00;;;;;;5032281;28;20680;-69
2023/01/09 09:00:14;;;;;;;1999.90;999.90;;;8.80;1.00;;;;;;5032309;28;20264;-68
2023/01/09 09:02:39;;;;;;;1999.90;999.90;;;8.70;1.00;;;;;;5032396;28;20495;-69
2023/01/09 09:05:05;;;;;;;1999.90;999.90;;;8.80;1.00;;;;;;5036942;28;20862;-69
2023/01/09 09:07:31;;;;;;;1999.90;999.90;;;8.80;1.00;;;;;;5038998;28;20186;-69
2023/01/09 09:09:57;;;;;;;1999.90;999.90;;;8.70;1.00;;;;;;5037242;28;20414;-68
2023/01/09 09:12:22;;;;;;;1999.90;999.90;;;8.80;1.00;;;;;;5032283;28;20412;-69
2023/01/09 09:17:32;;;;;;;1999.90;999.90;;;8.80;6.10;;;;;;5031965;28;20740;-69
2023/01/09 09:19:59;;;;;;;1999.90;999.90;;;8.80;99.90;;;;;;5032007;28;20424;-69
2023/01/09 09:22:25;;;;;;;1999.90;999.90;;;8.90;1.00;;;;;;5032101;28;20173;-69
2023/01/09 09:24:50;;;;;;;1999.90;999.90;;;8.80;1.00;;;;;;5032063;28;20428;-69
2023/01/09 09:27:16;;;;;;;1999.90;999.90;;;8.80;12.30;;;;;;5032103;28;20445;-69
2023/01/09 09:29:42;;;;;;;1999.90;999.90;;;8.80;50.90;;;;;;5032113;28;20201;-68
2023/01/09 09:32:07;;;;;;;1999.90;999.90;;;8.90;99.90;;;;;;5032157;28;20183;-69
2023/01/09 09:34:33;;;;;;;1999.90;999.90;;;8.80;99.90;;;;;;5031938;28;20199;-69
2023/01/09 09:36:58;;;;;;;1999.90;999.90;;;8.80;99.90;;;;;;5031809;28;20196;-69
2023/01/09 09:39:24;;;;;;;1999.90;999.90;;;8.80;99.90;;;;;;5031810;28;20173;-69
2023/01/09 09:45:04;;;;;;;1999.90;999.90;;;8.90;99.90;;;;;;5031811;28;20254;-69
2023/01/09 09:47:55;;;;;;;1999.90;999.90;;;8.90;99.90;;;;;;5031722;28;20411;-69
2023/01/09 09:50:26;;;;;;;1999.90;999.90;;;9.00;99.90;;;;;;5031761;28;20769;-69
2023/01/09 09:53:33;;;;;;;1999.90;999.90;;;9.00;99.90;;;;;;5032398;28;20476;-69
2023/01/09 09:56:00;;;;;;;1999.90;999.90;;;9.00;99.90;;;;;;5033961;28;20454;-69
2023/01/09 09:58:45;;;;;;;1999.90;999.90;;;9.10;99.90;;;;;;5035283;28;20424;-69
2023/01/09 10:01:17;;;;;;;1999.90;999.90;;;9.10;46.20;;;;;;5035859;28;20906;-69
2023/01/09 10:03:46;;;;;;;1999.90;999.90;;;9.20;95.10;;;;;;5035689;28;20989;-68
2023/01/09 10:06:19;;;;;;;1999.90;999.90;;;9.20;1.00;;;;;;5034648;28;20418;-69
2023/01/09 10:08:55;;;;;;;1999.90;999.90;;;9.30;1.00;;;;;;5033024;28;20850;-69
2023/01/09 10:11:31;;;;;;;1999.90;999.90;;;9.10;6.10;;;;;;5034608;28;20406;-69
2023/01/09 10:14:05;;;;;;;1999.90;999.90;;;9.10;8.70;;;;;;5034538;28;20976;-69
2023/01/09 10:17:17;;;;;;;1999.90;999.90;;;9.10;1.00;;;;;;5034328;28;20792;-69
2023/01/09 10:20:01;;;;;;;1999.90;999.90;;;9.10;1.00;;;;;;5033766;28;20417;-69
2023/01/09 10:23:04;;;;;;;1999.90;999.90;;;9.20;1.00;;;;;;5034526;28;20394;-69
2023/01/09 10:25:43;;;;;;;1999.90;999.90;;;9.20;1.00;;;;;;5034173;28;20938;-69
2023/01/09 10:28:31;;;;;;;1999.90;999.90;;;9.20;99.90;;;;;;5033007;28;20421;-69
2023/01/09 10:31:27;;;;;;;1999.90;999.90;;;9.20;1.00;;;;;;5034693;28;20466;-72
2023/01/09 10:34:28;;;;;;;1999.90;999.90;;;9.20;1.00;;;;;;5034547;28;20429;-71
2023/01/09 10:37:12;;;;;;;1999.90;999.90;;;9.20;1.00;;;;;;5034504;28;20817;-70
2023/01/09 10:40:02;;;;;;;1999.90;999.90;;;9.30;99.90;;;;;;5034527;28;20412;-69
2023/01/09 10:42:35;;;;;;;1999.90;999.90;;;9.20;99.90;;;;;;5034807;28;20411;-69
2023/01/09 10:45:13;;;;;;;1999.90;999.90;;;9.20;1.00;;;;;;5034788;28;20769;-70
2023/01/09 10:47:41;;;;;;;1999.90;999.90;;;9.20;1.00;;;;;;5030802;28;20408;-69
2023/01/09 10:50:21;;;;;;;1999.90;999.90;;;9.10;1.00;;;;;;5034694;28;20421;-69
2023/01/09 10:52:50;;;;;;;1999.90;999.90;;;9.00;1.00;;;;;;5034700;28;20489;-69
2023/01/09 10:55:44;;;;;;;1999.90;999.90;;;9.10;1.00;;;;;;5033878;28;20782;-69
2023/01/09 10:58:20;;;;;;;1999.90;999.90;;;9.10;1.00;;;;;;5034110;28;20410;-69
2023/01/09 11:00:48;;;;;;;1999.90;999.90;;;9.10;1.00;;;;;;5033795;28;20898;-69
2023/01/09 11:03:16;;;;;;;1999.90;999.90;;;9.00;1.00;;;;;;5034181;28;20406;-69
2023/01/09 11:05:43;;;;;;;1999.90;999.90;;;9.20;1.00;;;;;;5034239;28;20417;-69
2023/01/09 11:08:11;;;;;;;1999.90;999.90;;;9.30;99.90;;;;;;5033008;28;20453;-70
2023/01/09 11:10:53;;;;;;;1999.90;999.90;;;9.00;1.00;;;;;;5033943;28;20399;-70
2023/01/09 11:13:28;;;;;;;1999.90;999.90;;;9.10;1.00;;;;;;5034253;28;20408;-70
2023/01/09 11:16:05;;;;;;;1999.90;999.90;;;9.10;99.90;;;;;;5034353;28;20441;-73
2023/01/09 11:18:33;;;;;;;1999.90;999.90;;;9.10;99.90;;;;;;5033964;28;20475;-69
2023/01/09 11:21:27;;;;;;;1999.90;999.90;;;9.00;99.90;;;;;;5033884;28;20402;-69
2023/01/09 11:23:54;;;;;;;1999.90;999.90;;;9.00;99.90;;;;;;5033222;28;21022;-70
2023/01/09 11:26:31;;;;;;;1999.90;999.90;;;9.10;99.90;;;;;;5033730;28;20515;-69
2023/01/09 11:29:13;;;;;;;1999.90;999.90;;;9.10;1.00;;;;;;5033747;28;20464;-69
2023/01/09 11:31:41;;;;;;;1999.90;999.90;;;9.10;99.90;;;;;;5033151;28;20402;-69
2023/01/09 11:34:19;;;;;;;1999.90;999.90;;;9.10;99.90;;;;;;5033792;28;20771;-69
2023/01/09 11:36:45;;;;;;;1999.90;999.90;;;9.00;99.90;;;;;;5033286;28;20953;-69
2023/01/09 11:39:26;;;;;;;1999.90;999.90;;;8.90;99.90;;;;;;5033014;28;20882;-69
2023/01/09 11:42:04;;;;;;;1999.90;999.90;;;8.90;99.90;;;;;;5033366;28;20405;-69
2023/01/09 11:44:31;;;;;;;1999.90;999.90;;;8.90;7.30;;;;;;5033302;28;20445;-68
2023/01/09 11:46:56;;;;;;;1999.90;999.90;;;8.90;44.00;;;;;;5032986;28;20436;-69
2023/01/09 11:49:30;;;;;;;1999.90;999.90;;;9.00;99.90;;;;;;5033254;28;20893;-69
2023/01/09 11:52:19;;;;;;;1999.90;999.90;;;9.00;99.90;;;;;;5033390;28;20178;-69
2023/01/09 11:54:57;;;;;;;1999.90;999.90;;;9.00;99.90;;;;;;5033141;28;20845;-69
2023/01/09 11:57:24;;;;;;;1999.90;999.90;;;9.10;99.90;;;;;;5033012;28;20823;-68
2023/01/09 11:59:50;;;;;;;1999.90;999.90;;;9.10;1.00;;;;;;5032691;28;20418;-69
2023/01/09 12:02:15;;;;;;;1999.90;999.90;;;9.20;1.00;;;;;;5033080;28;20407;-69
2023/01/09 12:04:58;;;;;;;1999.90;999.90;;;9.30;1.00;;;;;;5032937;28;20437;-69
2023/01/09 12:07:39;;;;;;;1999.90;999.90;;;9.30;1.00;;;;;;5032556;28;20181;-69
2023/01/09 12:10:32;;;;;;;1999.90;999.90;;;9.10;99.90;;;;;;5032935;28;20414;-69
2023/01/09 12:13:00;;;;;;;1999.90;999.90;;;9.10;99.90;;;;;;5033068;28;20408;-69
2023/01/09 12:15:40;;;;;;;1999.90;999.90;;;9.00;99.90;;;;;;5032340;28;20432;-69
2023/01/09 12:18:24;;;;;;;1999.90;999.90;;;8.90;99.90;;;;;;5032082;28;20868;-69
2023/01/09 12:21:17;;;;;;;1999.90;999.90;;;8.80;1.00;;;;;;5032580;28;20429;-69
2023/01/09 12:24:06;;;;;;;1999.90;999.90;;;8.80;1.00;;;;;;5031982;28;20488;-68
2023/01/09 12:26:41;;;;;;;1999.90;999.90;;;8.80;1.00;;;;;;5032599;28;20785;-69
2023/01/09 12:29:31;;;;;;;1999.90;999.90;;;8.70;1.20;;;;;;5032563;28;20410;-68
2023/01/09 12:32:36;;;;;;;1999.90;999.90;;;8.90;1.00;;;;;;5032515;28;20905;-68
2023/01/09 12:35:34;;;;;;;1999.90;999.90;;;8.90;1.00;;;;;;5032415;28;20449;-69
2023/01/09 12:38:04;;;;;;;1999.90;999.90;;;9.00;1.00;;;;;;5032032;28;20913;-69
2023/01/09 12:40:29;;;;;;;1999.90;999.90;;;9.10;1.00;;;;;;5032225;28;20406;-69
2023/01/09 12:43:19;;;;;;;1999.90;999.90;;;9.10;1.00;;;;;;5032534;28;20467;-69
2023/01/09 12:46:03;;;;;;;1999.90;999.90;;;9.00;1.00;;;;;;5031803;28;20196;-69